Time;durP1;ratioP1;P1;durP2;ratioP2;P2;SDS_P1;SDS_P2;PMS_P1;PMS_P2;Temp;Humidity;BMP_temperature;BMP_pressure;BME280_temperature;BME280_humidity;BME280_pressure;Samples;Min_cycle;Max_cycle;Signal;HPM_P1;HPM_P2
2021/04/29 00:01:51;;;;;;;6.43;2.85;;;;;;;26.08;12.69;97343.94;5049360;28;20045;-91
2021/04/29 00:04:17;;;;;;;6.72;2.88;;;;;;;26.45;12.55;97341.22;5047282;28;20048;-90
2021/04/29 00:06:44;;;;;;;5.93;2.67;;;;;;;26.54;12.48;97344.03;5045976;28;20029;-90
2021/04/29 00:09:11;;;;;;;8.25;3.70;;;;;;;26.33;13.14;97342.91;5051463;28;20113;-91
2021/04/29 00:11:38;;;;;;;5.32;3.13;;;;;;;26.13;13.13;97342.59;5050315;28;20029;-91
2021/04/29 00:14:05;;;;;;;5.22;2.45;;;;;;;26.04;12.91;97343.28;5051504;28;20036;-91
2021/04/29 00:16:31;;;;;;;5.32;2.60;;;;;;;26.21;13.23;97343.06;5052535;28;20045;-91
2021/04/29 00:18:59;;;;;;;4.70;2.40;;;;;;;26.12;13.05;97343.03;5050296;28;20110;-90
2021/04/29 00:21:26;;;;;;;8.90;2.20;;;;;;;26.01;13.32;97341.44;5045773;28;20033;-90
2021/04/29 00:23:52;;;;;;;6.07;3.20;;;;;;;25.55;14.30;97347.34;5050151;28;20098;-90
2021/04/29 00:26:18;;;;;;;3.55;1.95;;;;;;;25.32;14.42;97349.38;5051942;28;20032;-90
2021/04/29 00:28:45;;;;;;;5.70;2.83;;;;;;;25.20;14.23;97352.28;5051728;28;20041;-91
2021/04/29 00:31:11;;;;;;;6.25;2.78;;;;;;;25.30;14.08;97349.06;5050600;28;20163;-91
2021/04/29 00:33:37;;;;;;;5.72;3.00;;;;;;;25.01;14.12;97345.78;5045765;28;20040;-91
2021/04/29 00:36:04;;;;;;;5.10;2.25;;;;;;;25.05;13.66;97351.25;5049199;28;20036;-91
2021/04/29 00:38:31;;;;;;;4.40;2.20;;;;;;;25.19;13.66;97350.72;5052397;28;20115;-91
2021/04/29 00:41:02;;;;;;;5.25;2.50;;;;;;;25.24;13.31;97345.28;5045700;28;20076;-91
2021/04/29 00:43:29;;;;;;;4.75;2.63;;;;;;;25.43;13.43;97351.78;5052309;28;20593;-91
2021/04/29 00:45:55;;;;;;;5.22;2.25;;;;;;;25.61;13.20;97351.13;5044652;28;20043;-91
2021/04/29 00:48:21;;;;;;;6.68;2.95;;;;;;;25.70;13.14;97351.94;5045013;28;20108;-91
2021/04/29 00:50:48;;;;;;;4.18;2.58;;;;;;;25.46;13.49;97350.13;5045218;28;20040;-90
2021/04/29 00:53:14;;;;;;;4.43;2.28;;;;;;;25.71;13.08;97353.53;5051252;28;20159;-91
2021/04/29 00:55:40;;;;;;;5.72;2.85;;;;;;;25.74;13.30;97349.75;5047582;28;20060;-91
2021/04/29 00:58:06;;;;;;;4.60;2.63;;;;;;;25.68;13.38;97346.00;5048846;28;20120;-91
2021/04/29 01:00:34;;;;;;;6.68;3.67;;;;;;;25.26;14.11;97344.81;5064164;28;20083;-91
2021/04/29 01:03:11;;;;;;;4.85;2.40;;;;;;;25.27;13.66;97346.41;5049081;28;20067;-91
2021/04/29 01:05:45;;;;;;;5.07;2.55;;;;;;;25.47;13.52;97346.06;5044539;28;20033;-91
2021/04/29 01:08:14;;;;;;;5.85;3.70;;;;;;;25.16;13.75;97346.00;5043105;28;20028;-91
2021/04/29 01:10:53;;;;;;;6.55;2.50;;;;;;;25.08;13.67;97339.88;5048429;28;20076;-91
2021/04/29 01:13:28;;;;;;;5.90;2.72;;;;;;;25.28;13.70;97342.34;5045557;28;20033;-91
2021/04/29 01:15:54;;;;;;;4.30;2.08;;;;;;;25.41;13.71;97340.22;5046968;28;20027;-91
2021/04/29 01:18:24;;;;;;;4.85;2.78;;;;;;;25.69;13.40;97335.53;5050249;28;20029;-91
2021/04/29 01:21:15;;;;;;;4.85;2.28;;;;;;;25.41;13.69;97332.56;5050340;28;20402;-88
2021/04/29 01:23:41;;;;;;;9.50;2.50;;;;;;;25.46;13.71;97330.44;5044012;28;20064;-90
2021/04/29 01:26:31;;;;;;;3.40;2.00;;;;;;;24.99;14.26;97328.59;5043676;28;20036;-90
2021/04/29 01:28:59;;;;;;;3.50;2.15;;;;;;;25.09;14.32;97324.59;5008507;28;20459;-89
2021/04/29 01:31:31;;;;;;;4.32;2.53;;;;;;;25.16;14.16;97323.53;5050809;28;20395;-90
2021/04/29 01:33:59;;;;;;;5.15;2.33;;;;;;;24.86;14.04;97332.69;5049140;28;20036;-90
2021/04/29 01:36:30;;;;;;;5.93;3.05;;;;;;;24.82;14.39;97329.25;5049390;28;20390;-90
2021/04/29 01:38:57;;;;;;;;;;;;;;;24.91;14.89;97326.50;5045864;28;20028;-89
2021/04/29 01:41:24;;;;;;;4.00;1.92;;;;;;;25.33;13.88;97331.28;5045024;28;19956;-89
2021/04/29 01:43:52;;;;;;;7.05;3.60;;;;;;;24.47;14.59;97329.25;5050289;28;20036;-90
2021/04/29 01:46:18;;;;;;;5.45;2.70;;;;;;;24.61;14.75;97327.97;5041247;28;20029;-90
2021/04/29 01:48:45;;;;;;;6.70;2.28;;;;;;;24.91;14.14;97330.09;5047502;28;20065;-90
2021/04/29 01:51:12;;;;;;;7.03;2.78;;;;;;;25.49;13.84;97332.31;5049271;28;20044;-89
2021/04/29 01:53:40;;;;;;;4.72;2.53;;;;;;;25.66;13.24;97328.03;5047004;28;20029;-90
2021/04/29 01:56:06;;;;;;;3.40;2.13;;;;;;;25.62;13.52;97319.75;5046422;28;20044;-89
2021/04/29 01:58:32;;;;;;;6.03;2.80;;;;;;;25.65;13.79;97327.25;5046006;28;20030;-89
2021/04/29 02:01:00;;;;;;;5.97;2.38;;;;;;;25.67;13.44;97327.56;5045356;28;20433;-90
2021/04/29 02:03:27;;;;;;;5.13;2.35;;;;;;;25.71;13.78;97319.78;5045484;28;20078;-89
2021/04/29 02:05:54;;;;;;;6.18;2.30;;;;;;;25.51;13.84;97316.56;5050768;28;20021;-89
2021/04/29 02:08:20;;;;;;;3.50;2.33;;;;;;;25.46;14.05;97314.38;5043828;28;20106;-89
2021/04/29 02:10:49;;;;;;;4.15;2.25;;;;;;;25.51;13.73;97315.81;5048216;28;20064;-90
2021/04/29 02:13:17;;;;;;;4.43;2.17;;;;;;;25.35;14.23;97314.75;5051256;28;20037;-90
2021/04/29 02:15:57;;;;;;;3.42;2.00;;;;;;;24.94;14.64;97315.16;5048239;28;20026;-89
2021/04/29 02:18:24;;;;;;;4.53;2.20;;;;;;;25.02;14.22;97312.88;5046202;28;20431;-89
2021/04/29 02:20:53;;;;;;;6.25;2.70;;;;;;;25.39;13.78;97315.38;5051377;28;20036;-89
2021/04/29 02:23:23;;;;;;;5.32;3.17;;;;;;;25.60;13.87;97299.72;5048579;28;20028;-91
2021/04/29 02:25:53;;;;;;;4.72;2.40;;;;;;;25.72;13.71;97303.69;5052654;28;20482;-91
2021/04/29 02:28:20;;;;;;;5.38;2.67;;;;;;;26.09;13.32;97313.78;5051510;28;20144;-91
2021/04/29 02:30:49;;;;;;;4.93;2.10;;;;;;;25.97;14.06;97304.25;5050975;28;20059;-91
2021/04/29 02:33:18;;;;;;;6.95;2.60;;;;;;;25.13;14.61;97308.41;5051847;28;20525;-92
2021/04/29 02:35:49;;;;;;;4.22;2.10;;;;;;;25.21;14.23;97309.69;5042927;28;20124;-92
2021/04/29 02:38:16;;;;;;;4.53;2.58;;;;;;;25.62;13.94;97308.50;5053549;28;20102;-91
2021/04/29 02:40:44;;;;;;;5.53;2.72;;;;;;;25.84;14.06;97306.38;5052397;28;20037;-92
2021/04/29 02:43:17;;;;;;;5.38;2.47;;;;;;;25.91;13.81;97305.28;5052133;28;20024;-92
2021/04/29 02:45:44;;;;;;;5.05;2.70;;;;;;;26.20;13.49;97313.34;5050231;28;20025;-93
2021/04/29 02:48:16;;;;;;;4.30;2.50;;;;;;;25.79;14.38;97306.97;5052424;28;20037;-93
2021/04/29 02:50:44;;;;;;;6.90;2.78;;;;;;;25.69;14.17;97310.25;5048099;28;20511;-94
2021/04/29 02:53:14;;;;;;;5.85;2.15;;;;;;;25.92;14.03;97301.25;5050453;28;20078;-94
2021/04/29 02:55:42;;;;;;;5.65;2.42;;;;;;;26.03;13.85;97307.97;5049982;28;20029;-93
2021/04/29 02:58:10;;;;;;;6.25;2.78;;;;;;;25.84;13.96;97312.00;5049793;28;20120;-93
2021/04/29 03:00:40;;;;;;;5.10;2.60;;;;;;;25.82;13.92;97310.91;5051580;28;20048;-94
2021/04/29 03:03:07;;;;;;;4.13;2.05;;;;;;;25.82;13.83;97314.50;5045102;28;20437;-90
2021/04/29 03:05:35;;;;;;;4.60;2.30;;;;;;;26.05;13.50;97311.13;5053067;28;20108;-91
2021/04/29 03:08:01;;;;;;;4.40;2.20;;;;;;;26.31;13.23;97320.09;5049270;28;20038;-91
2021/04/29 03:10:28;;;;;;;5.10;2.60;;;;;;;26.45;13.45;97316.66;5052616;28;20045;-90
2021/04/29 03:12:54;;;;;;;4.00;2.53;;;;;;;26.46;13.36;97323.88;5043807;28;20033;-90
2021/04/29 03:15:21;;;;;;;6.47;2.80;;;;;;;26.66;13.68;97320.56;5049836;28;20029;-90
2021/04/29 03:17:47;;;;;;;5.60;2.58;;;;;;;26.18;14.48;97322.28;5053493;28;20531;-90
2021/04/29 03:20:14;;;;;;;4.32;2.35;;;;;;;25.48;14.69;97325.94;5052617;28;20036;-90
2021/04/29 03:22:40;;;;;;;4.07;2.28;;;;;;;25.18;14.83;97324.63;5050488;28;20463;-91
2021/04/29 03:25:07;;;;;;;4.97;3.03;;;;;;;25.43;14.64;97326.50;5048544;28;20032;-90
2021/04/29 03:27:33;;;;;;;5.28;2.70;;;;;;;25.58;14.58;97321.13;5052374;28;20059;-91
2021/04/29 03:29:59;;;;;;;5.20;2.38;;;;;;;25.57;14.50;97314.72;5050571;28;20105;-90
2021/04/29 03:32:25;;;;;;;5.05;2.58;;;;;;;25.57;14.65;97316.75;5045901;28;20033;-90
2021/04/29 03:34:52;;;;;;;4.57;2.53;;;;;;;25.20;14.74;97325.00;5051470;28;20056;-91
2021/04/29 03:37:18;;;;;;;5.13;2.47;;;;;;;24.72;15.58;97320.72;5047125;28;20517;-90
2021/04/29 03:39:45;;;;;;;6.25;2.80;;;;;;;24.30;16.18;97322.25;5045992;28;20037;-90
2021/04/29 03:42:11;;;;;;;4.40;2.75;;;;;;;24.34;16.01;97314.47;5049676;28;20472;-91
2021/04/29 03:44:39;;;;;;;3.80;1.80;;;;;;;24.89;15.49;97318.53;5053694;28;20033;-91
2021/04/29 03:47:05;;;;;;;4.18;1.90;;;;;;;25.55;14.92;97320.03;5053081;28;20022;-90
2021/04/29 03:49:32;;;;;;;2.95;1.85;;;;;;;26.13;14.03;97311.63;5062255;28;20032;-91
2021/04/29 03:51:58;;;;;;;3.42;1.80;;;;;;;26.69;13.60;97309.16;5052498;28;20087;-91
2021/04/29 03:54:24;;;;;;;3.88;2.40;;;;;;;25.95;16.10;97300.31;5049872;28;20495;-91
2021/04/29 03:56:51;;;;;;;4.57;2.00;;;;;;;25.56;15.56;97315.97;5047866;28;20554;-91
2021/04/29 03:59:17;;;;;;;3.85;2.20;;;;;;;25.73;15.05;97308.06;5049928;28;20538;-87
2021/04/29 04:01:44;;;;;;;5.53;2.17;;;;;;;26.27;14.18;97313.06;5047095;28;21587;-90
2021/04/29 04:04:10;;;;;;;3.78;1.95;;;;;;;26.93;14.23;97306.50;5044108;28;20043;-90
2021/04/29 04:06:36;;;;;;;2.70;1.70;;;;;;;26.20;16.48;97308.53;5048827;28;20029;-89
2021/04/29 04:09:03;;;;;;;2.63;1.80;;;;;;;26.57;14.73;97307.28;5050438;28;20116;-89
2021/04/29 04:11:29;;;;;;;4.93;2.17;;;;;;;27.18;13.79;97302.53;5058851;28;20129;-89
2021/04/29 04:13:57;;;;;;;4.63;2.05;;;;;;;27.41;14.85;97313.13;5051329;28;20033;-89
2021/04/29 04:16:26;;;;;;;3.90;2.28;;;;;;;26.53;14.64;97311.50;5041564;28;20033;-88
2021/04/29 04:18:53;;;;;;;2.97;1.90;;;;;;;26.35;15.17;97311.50;5049917;28;20032;-88
2021/04/29 04:21:20;;;;;;;3.67;2.58;;;;;;;25.84;15.99;97311.22;5044915;28;20036;-87
2021/04/29 04:23:46;;;;;;;2.50;1.75;;;;;;;25.73;15.74;97311.66;5045484;28;20028;-88
2021/04/29 04:26:12;;;;;;;2.92;2.03;;;;;;;26.09;15.08;97308.16;5047009;28;20061;-87
2021/04/29 04:28:38;;;;;;;3.30;2.30;;;;;;;26.30;15.39;97314.94;5042137;28;20116;-88
2021/04/29 04:31:04;;;;;;;2.38;1.50;;;;;;;26.97;14.37;97309.94;5042438;28;20037;-88
2021/04/29 04:33:30;;;;;;;4.35;1.80;;;;;;;26.93;14.28;97314.19;5046043;28;20029;-88
2021/04/29 04:35:56;;;;;;;3.55;2.30;;;;;;;25.46;16.10;97319.22;5050628;28;20029;-88
2021/04/29 04:38:22;;;;;;;3.30;1.92;;;;;;;25.78;15.77;97313.06;5043305;28;20059;-88
2021/04/29 04:40:48;;;;;;;2.03;1.52;;;;;;;26.24;15.28;97308.34;5049609;28;20029;-89
2021/04/29 04:43:15;;;;;;;3.78;2.10;;;;;;;25.58;15.92;97312.69;5045384;28;20090;-89
2021/04/29 04:45:43;;;;;;;3.45;2.13;;;;;;;25.53;15.79;97316.13;5046021;28;20036;-90
2021/04/29 04:48:12;;;;;;;3.95;2.05;;;;;;;25.92;16.16;97302.03;5046847;28;20123;-89
2021/04/29 04:50:39;;;;;;;4.55;2.83;;;;;;;25.27;16.56;97309.88;5049042;28;20091;-90
2021/04/29 04:53:05;;;;;;;5.80;2.70;;;;;;;25.84;16.07;97302.78;5044804;28;20058;-90
2021/04/29 04:55:34;;;;;;;8.02;2.97;;;;;;;25.06;16.75;97316.31;5045754;28;20037;-89
2021/04/29 04:58:00;;;;;;;4.93;2.47;;;;;;;25.70;16.36;97306.94;5043353;28;20121;-93
2021/04/29 05:00:26;;;;;;;4.55;2.33;;;;;;;25.24;16.86;97313.59;5047485;28;20053;-93
2021/04/29 05:02:52;;;;;;;6.43;2.85;;;;;;;25.21;17.22;97312.50;5050259;28;20037;-93
2021/04/29 05:05:18;;;;;;;5.43;2.85;;;;;;;25.02;16.81;97308.00;5041373;28;20052;-94
2021/04/29 05:07:45;;;;;;;3.58;2.17;;;;;;;25.67;16.75;97307.09;5052798;28;20044;-95
2021/04/29 05:10:11;;;;;;;3.33;1.95;;;;;;;26.11;17.41;97302.09;5046683;28;20068;-91
2021/04/29 05:12:38;;;;;;;4.82;2.60;;;;;;;24.78;17.52;97308.94;5047886;28;20029;-95
2021/04/29 05:15:06;;;;;;;2.85;2.15;;;;;;;26.29;16.54;97300.09;5052838;28;20386;-93
2021/04/29 05:17:32;;;;;;;7.38;2.78;;;;;;;25.63;17.11;97301.63;5049985;28;20025;-95
2021/04/29 05:19:58;;;;;;;6.57;2.67;;;;;;;26.67;16.33;97296.81;5056704;28;20108;-90
2021/04/29 05:22:24;;;;;;;2.38;1.80;;;;;;;27.78;15.48;97297.63;5048521;28;20037;-85
2021/04/29 05:24:50;;;;;;;3.92;2.15;;;;;;;27.81;15.62;97302.31;5047934;28;20494;-87
2021/04/29 05:27:16;;;;;;;3.53;1.88;;;;;;;28.23;15.18;97295.81;5050397;28;20148;-90
2021/04/29 05:29:43;;;;;;;4.18;2.60;;;;;;;27.23;15.66;97296.25;5037193;28;20099;-88
2021/04/29 05:32:09;;;;;;;5.05;3.38;;;;;;;26.78;16.84;97301.97;5046728;28;20064;-88
2021/04/29 05:34:37;;;;;;;4.47;2.53;;;;;;;27.08;16.21;97296.13;5045673;28;20029;-86
2021/04/29 05:37:03;;;;;;;4.05;2.65;;;;;;;26.68;16.18;97296.31;5044308;28;20537;-89
2021/04/29 05:39:29;;;;;;;4.63;2.17;;;;;;;27.89;15.41;97297.88;5044163;28;20029;-83
2021/04/29 05:41:55;;;;;;;4.18;2.65;;;;;;;26.33;17.02;97302.72;5046234;28;20029;-85
2021/04/29 05:44:21;;;;;;;6.00;3.00;;;;;;;26.92;17.09;97301.34;5046610;28;20507;-88
2021/04/29 05:46:47;;;;;;;4.95;2.80;;;;;;;26.77;16.49;97300.44;5048680;28;20029;-88
2021/04/29 05:49:13;;;;;;;5.32;2.20;;;;;;;27.34;15.94;97294.50;5051881;28;20032;-88
2021/04/29 05:51:40;;;;;;;3.08;2.10;;;;;;;27.56;15.64;97294.28;5051183;28;20108;-88
2021/04/29 05:54:06;;;;;;;6.57;2.78;;;;;;;27.07;16.41;97294.56;5047180;28;20033;-89
2021/04/29 05:56:32;;;;;;;7.28;2.83;;;;;;;26.80;16.51;97297.44;5054617;28;20032;-88
2021/04/29 05:58:58;;;;;;;5.53;3.20;;;;;;;25.82;17.49;97292.00;5046071;28;20022;-88
2021/04/29 06:01:25;;;;;;;3.83;2.03;;;;;;;27.31;17.24;97281.34;5046981;28;20095;-88
2021/04/29 06:03:51;;;;;;;3.05;2.20;;;;;;;28.27;16.47;97282.28;5050035;28;20026;-88
2021/04/29 06:06:17;;;;;;;4.20;2.95;;;;;;;27.64;16.08;97284.22;5039196;28;20045;-88
2021/04/29 06:08:43;;;;;;;3.10;2.00;;;;;;;28.47;15.54;97274.75;5051385;28;20036;-88
2021/04/29 06:11:09;;;;;;;3.97;2.17;;;;;;;28.14;15.62;97279.72;5054629;28;20061;-88
2021/04/29 06:13:35;;;;;;;6.03;3.20;;;;;;;26.95;16.60;97278.66;5041666;28;20565;-88
2021/04/29 06:16:02;;;;;;;3.30;1.98;;;;;;;28.34;15.59;97273.44;5049134;28;20090;-88
2021/04/29 06:18:28;;;;;;;3.58;1.90;;;;;;;28.98;15.61;97271.66;5055908;28;20514;-89
2021/04/29 06:20:54;;;;;;;4.43;2.22;;;;;;;29.54;14.53;97272.63;5056040;28;20068;-89
2021/04/29 06:23:20;;;;;;;9.93;3.67;;;;;;;29.06;15.40;97274.84;5047902;28;20086;-89
2021/04/29 06:25:46;;;;;;;5.00;2.40;;;;;;;29.12;15.37;97279.38;5055651;28;20490;-88
2021/04/29 06:28:13;;;;;;;3.92;2.17;;;;;;;29.82;14.76;97276.69;5069327;28;20109;-88
2021/04/29 06:30:41;;;;;;;8.57;3.20;;;;;;;29.56;14.89;97270.06;5053788;28;20067;-88
2021/04/29 06:33:08;;;;;;;8.52;2.95;;;;;;;29.27;15.42;97270.88;5052307;28;20387;-89
2021/04/29 06:35:34;;;;;;;5.70;2.55;;;;;;;29.74;14.55;97264.94;5053489;28;20075;-88
2021/04/29 06:38:00;;;;;;;4.63;2.58;;;;;;;30.17;14.93;97266.09;5054108;28;20395;-88
2021/04/29 06:40:26;;;;;;;3.75;2.08;;;;;;;30.63;14.26;97260.50;5055261;28;20045;-89
2021/04/29 06:42:52;;;;;;;4.75;2.22;;;;;;;30.83;15.33;97257.59;5047895;28;20508;-89
2021/04/29 06:45:18;;;;;;;5.47;2.63;;;;;;;29.88;15.20;97263.38;5056264;28;20163;-89
2021/04/29 06:47:44;;;;;;;3.13;1.73;;;;;;;30.21;14.97;97258.16;5040741;28;20505;-88
2021/04/29 06:50:11;;;;;;;2.80;1.63;;;;;;;31.37;13.95;97264.31;5054307;28;20033;-89
2021/04/29 06:52:37;;;;;;;3.88;2.38;;;;;;;30.53;14.49;97262.69;5047216;28;20033;-88
2021/04/29 06:55:04;;;;;;;5.00;2.40;;;;;;;30.51;14.78;97255.97;5035571;28;20052;-88
2021/04/29 06:57:30;;;;;;;4.18;1.73;;;;;;;31.26;14.17;97256.50;5035722;28;20028;-86
2021/04/29 06:59:56;;;;;;;2.65;1.48;;;;;;;31.70;13.78;97256.09;5033419;28;20068;-86
2021/04/29 07:02:22;;;;;;;2.33;1.63;;;;;;;32.17;13.53;97263.13;5039631;28;20037;-86
2021/04/29 07:04:48;;;;;;;3.10;1.90;;;;;;;32.02;13.24;97263.28;5033440;28;20075;-86
2021/04/29 07:07:15;;;;;;;2.53;1.25;;;;;;;32.79;12.88;97264.94;5037206;28;20038;-86
2021/04/29 07:09:41;;;;;;;3.08;1.13;;;;;;;33.10;12.80;97261.13;5044513;28;20457;-86
2021/04/29 07:12:07;;;;;;;1.38;0.95;;;;;;;33.85;12.85;97265.78;5039638;28;20125;-89
2021/04/29 07:14:33;;;;;;;1.83;1.00;;;;;;;34.38;12.01;97264.66;5042869;28;20017;-87
2021/04/29 07:16:59;;;;;;;0.80;0.80;;;;;;;34.70;11.67;97272.28;5045022;28;20107;-86
2021/04/29 07:19:25;;;;;;;1.27;0.80;;;;;;;34.36;12.10;97268.00;5036389;28;20583;-86
2021/04/29 07:21:52;;;;;;;1.30;0.95;;;;;;;34.55;12.04;97271.06;5034425;28;20021;-87
2021/04/29 07:24:18;;;;;;;1.60;0.90;;;;;;;34.48;11.85;97266.66;5044629;28;20033;-86
2021/04/29 07:26:44;;;;;;;2.85;0.88;;;;;;;34.33;12.29;97271.16;5041159;28;20056;-86
2021/04/29 07:29:10;;;;;;;1.13;0.85;;;;;;;34.27;12.67;97265.44;5033973;28;20032;-86
2021/04/29 07:31:36;;;;;;;2.45;1.10;;;;;;;34.38;11.83;97271.09;5038821;28;20033;-87
2021/04/29 07:34:02;;;;;;;1.00;0.88;;;;;;;34.31;12.03;97257.41;5035587;28;20046;-86
2021/04/29 07:36:28;;;;;;;2.97;1.35;;;;;;;33.66;11.79;97254.16;5033789;28;20053;-86
2021/04/29 07:38:55;;;;;;;1.20;1.00;;;;;;;33.74;12.44;97260.13;5034298;28;20033;-89
2021/04/29 07:41:25;;;;;;;1.33;1.23;;;;;;;33.94;12.97;97256.97;5035270;28;20033;-87
2021/04/29 07:43:52;;;;;;;2.90;0.90;;;;;;;34.09;12.69;97263.19;5036224;28;20040;-86
2021/04/29 07:46:18;;;;;;;2.00;1.25;;;;;;;33.95;12.58;97259.31;5035277;28;20171;-86
2021/04/29 07:48:44;;;;;;;2.22;0.80;;;;;;;34.05;12.49;97254.88;5036311;28;20124;-86
2021/04/29 07:51:10;;;;;;;4.20;1.05;;;;;;;34.14;12.99;97267.31;5037398;28;20041;-87
2021/04/29 07:53:36;;;;;;;1.83;1.50;;;;;;;34.23;12.22;97264.19;5037189;28;20033;-86
2021/04/29 07:56:03;;;;;;;6.65;1.20;;;;;;;33.36;12.85;97258.81;5036311;28;20033;-86
2021/04/29 07:58:29;;;;;;;3.38;1.88;;;;;;;32.44;13.40;97248.25;5034466;28;20059;-86
2021/04/29 08:00:55;;;;;;;2.22;1.20;;;;;;;32.96;13.52;97256.41;5049702;28;20052;-86
2021/04/29 08:03:21;;;;;;;1.30;1.00;;;;;;;32.41;14.25;97254.97;5049867;28;20025;-86
2021/04/29 08:05:48;;;;;;;1.17;1.00;;;;;;;32.95;13.64;97249.97;5040421;28;20033;-86
2021/04/29 08:08:14;;;;;;;1.85;1.20;;;;;;;33.27;13.87;97248.47;5036075;28;20383;-87
2021/04/29 08:10:41;;;;;;;2.22;1.30;;;;;;;32.90;13.55;97242.22;5037941;28;20060;-86
2021/04/29 08:13:11;;;;;;;1.10;0.90;;;;;;;33.61;13.80;97239.97;5034471;28;20072;-86
2021/04/29 08:15:39;;;;;;;1.05;0.95;;;;;;;33.78;13.26;97237.84;5035801;28;20024;-87
2021/04/29 08:18:05;;;;;;;1.02;0.82;;;;;;;33.52;13.57;97238.09;5035260;28;20068;-86
2021/04/29 08:20:32;;;;;;;1.00;0.90;;;;;;;34.15;13.13;97243.97;5038873;28;20029;-86
2021/04/29 08:22:58;;;;;;;1.80;1.10;;;;;;;33.85;13.57;97240.94;5044280;28;20026;-86
2021/04/29 08:25:24;;;;;;;2.22;1.15;;;;;;;33.10;14.35;97238.38;5033497;28;20029;-87
2021/04/29 08:27:50;;;;;;;1.75;1.20;;;;;;;32.88;14.81;97233.41;5034222;28;20021;-87
2021/04/29 08:30:17;;;;;;;1.33;1.17;;;;;;;32.60;14.61;97232.56;5034982;28;20029;-87
2021/04/29 08:32:43;;;;;;;2.15;1.40;;;;;;;33.14;14.26;97224.69;5038595;28;20044;-87
2021/04/29 08:35:09;;;;;;;1.80;1.08;;;;;;;33.71;14.25;97224.91;5041990;28;20040;-87
2021/04/29 08:37:35;;;;;;;1.33;0.70;;;;;;;34.16;13.64;97219.13;5041465;28;20380;-86
2021/04/29 08:40:03;;;;;;;1.50;1.25;;;;;;;34.05;14.14;97223.56;5036804;28;20034;-86
2021/04/29 08:42:30;;;;;;;1.63;0.95;;;;;;;34.12;14.51;97210.84;5036547;28;20029;-87
2021/04/29 08:44:56;;;;;;;1.70;0.80;;;;;;;34.07;13.04;97208.81;5036236;28;20591;-86
2021/04/29 08:47:24;;;;;;;2.75;0.90;;;;;;;34.54;14.41;97201.84;5037978;28;20136;-86
2021/04/29 08:49:52;;;;;;;0.95;0.80;;;;;;;33.78;14.25;97198.75;5034986;28;20025;-86
2021/04/29 08:52:19;;;;;;;1.10;0.77;;;;;;;33.57;13.60;97203.19;5037517;28;20491;-86
2021/04/29 08:54:47;;;;;;;2.42;1.00;;;;;;;33.33;14.66;97206.56;5037774;28;20075;-87
2021/04/29 08:57:14;;;;;;;1.35;0.82;;;;;;;33.90;14.26;97205.19;5038230;28;20117;-87
2021/04/29 08:59:40;;;;;;;1.00;0.80;;;;;;;33.98;14.97;97203.38;5046357;28;20041;-86
2021/04/29 09:02:07;;;;;;;1.23;0.70;;;;;;;33.51;14.83;97195.94;5048938;28;20521;-86
2021/04/29 09:04:42;;;;;;;4.13;1.10;;;;;;;33.22;15.27;97198.03;5053133;28;20029;-86
2021/04/29 09:07:17;;;;;;;1.75;0.93;;;;;;;33.47;14.93;97201.13;5050955;28;20067;-86
2021/04/29 09:09:44;;;;;;;0.85;0.70;;;;;;;33.86;14.47;97202.63;5052887;28;20099;-86
2021/04/29 09:12:11;;;;;;;1.13;1.02;;;;;;;32.93;15.12;97195.66;5038799;28;20067;-85
2021/04/29 09:14:40;;;;;;;1.40;1.00;;;;;;;33.44;14.76;97200.09;5050508;28;20041;-86
2021/04/29 09:17:07;;;;;;;1.25;0.90;;;;;;;33.39;15.01;97190.25;5049518;28;20079;-86
2021/04/29 09:19:35;;;;;;;1.17;0.88;;;;;;;32.86;15.49;97195.41;5052389;28;20036;-86
2021/04/29 09:22:03;;;;;;;1.80;1.15;;;;;;;33.69;15.60;97186.88;5045738;28;20025;-86
2021/04/29 09:24:38;;;;;;;3.05;1.20;;;;;;;33.13;14.85;97183.28;5052987;28;20033;-87
2021/04/29 09:27:15;;;;;;;0.98;0.88;;;;;;;33.23;15.89;97170.34;5046897;28;20070;-87
2021/04/29 09:29:55;;;;;;;1.13;1.00;;;;;;;34.04;14.24;97178.50;5049969;28;20508;-87
2021/04/29 09:32:26;;;;;;;2.40;1.20;;;;;;;33.20;15.39;97177.84;5051126;28;20037;-86
2021/04/29 09:34:52;;;;;;;3.72;1.05;;;;;;;34.02;15.16;97172.53;5051789;28;20499;-87
2021/04/29 09:37:34;;;;;;;1.20;1.00;;;;;;;34.39;14.84;97169.25;5051743;28;20069;-86
2021/04/29 09:40:03;;;;;;;1.08;0.98;;;;;;;33.63;14.76;97164.09;5052055;28;20045;-86
2021/04/29 09:42:36;;;;;;;1.15;0.85;;;;;;;34.66;15.46;97163.41;5052339;28;20102;-87
2021/04/29 09:45:04;;;;;;;1.30;0.95;;;;;;;34.71;14.60;97164.69;5051940;28;20107;-86
2021/04/29 09:47:31;;;;;;;1.40;0.55;;;;;;;35.34;15.14;97164.44;5047629;28;20041;-85
2021/04/29 09:49:57;;;;;;;1.77;0.57;;;;;;;35.91;14.94;97155.56;5049327;28;20036;-86
2021/04/29 09:52:25;;;;;;;1.17;0.68;;;;;;;36.31;13.86;97145.22;5038916;28;20120;-86
2021/04/29 09:54:52;;;;;;;1.13;0.50;;;;;;;35.96;14.78;97140.44;5045721;28;20121;-86
2021/04/29 09:57:27;;;;;;;1.50;0.57;;;;;;;36.22;14.14;97144.81;5049230;28;20028;-86
2021/04/29 10:00:02;;;;;;;2.78;0.55;;;;;;;36.18;14.66;97136.53;5037805;28;20116;-86
2021/04/29 10:02:29;;;;;;;1.25;0.40;;;;;;;35.85;14.80;97146.28;5042983;28;20037;-86
2021/04/29 10:04:56;;;;;;;0.70;0.63;;;;;;;36.34;14.40;97131.94;5050761;28;20041;-86
2021/04/29 10:07:23;;;;;;;1.85;0.45;;;;;;;36.33;14.45;97130.38;5047810;28;20069;-86
2021/04/29 10:09:50;;;;;;;0.40;0.40;;;;;;;36.63;13.90;97133.84;5032646;28;20087;-87
2021/04/29 10:12:20;;;;;;;0.75;0.50;;;;;;;36.38;13.92;97135.25;5051886;28;20070;-86
2021/04/29 10:14:52;;;;;;;1.02;0.50;;;;;;;35.88;14.20;97127.28;5020607;28;20515;-86
2021/04/29 10:17:20;;;;;;;0.52;0.35;;;;;;;36.34;13.92;97126.22;5039539;28;20067;-86
2021/04/29 10:19:49;;;;;;;1.15;0.50;;;;;;;36.63;13.63;97131.78;5043354;28;20043;-87
2021/04/29 10:22:16;;;;;;;0.60;0.30;;;;;;;36.50;13.43;97136.66;5049040;28;20112;-87
2021/04/29 10:24:44;;;;;;;2.65;0.30;;;;;;;36.52;13.75;97134.03;5038952;28;20139;-86
2021/04/29 10:27:13;;;;;;;1.23;0.40;;;;;;;36.22;14.02;97139.88;5039222;28;20411;-86
2021/04/29 10:29:39;;;;;;;0.65;0.32;;;;;;;36.24;13.89;97136.47;5032377;28;20037;-86
2021/04/29 10:32:12;;;;;;;2.13;0.30;;;;;;;36.21;14.26;97132.63;5032550;28;20064;-86
2021/04/29 10:34:40;;;;;;;2.42;0.50;;;;;;;36.37;13.64;97127.97;5044504;28;20044;-86
2021/04/29 10:37:19;;;;;;;1.75;0.50;;;;;;;36.62;14.01;97141.66;5052302;28;20041;-87
2021/04/29 10:39:53;;;;;;;0.30;0.30;;;;;;;36.69;13.37;97134.53;5054992;28;20037;-86
2021/04/29 10:42:20;;;;;;;1.15;0.40;;;;;;;37.01;13.53;97131.72;5054451;28;20075;-87
2021/04/29 10:44:51;;;;;;;1.00;0.43;;;;;;;37.40;13.64;97131.84;5050892;28;20386;-86
2021/04/29 10:47:29;;;;;;;0.73;0.40;;;;;;;37.51;12.71;97136.59;5034904;28;20045;-86
2021/04/29 10:50:10;;;;;;;0.38;0.32;;;;;;;36.42;13.60;97139.34;5046676;28;20124;-87
2021/04/29 10:52:49;;;;;;;0.60;0.52;;;;;;;36.65;13.47;97128.38;5066632;28;20755;-85
2021/04/29 10:55:25;;;;;;;1.92;0.50;;;;;;;36.39;13.32;97116.75;5048259;28;20044;-86
2021/04/29 10:57:52;;;;;;;0.60;0.55;;;;;;;36.66;13.26;97121.34;5037182;28;20411;-86
2021/04/29 11:00:19;;;;;;;0.50;0.40;;;;;;;36.49;12.92;97141.59;5050514;28;20459;-86
2021/04/29 11:03:01;;;;;;;1.30;0.50;;;;;;;36.72;13.04;97137.09;5043622;28;20090;-86
2021/04/29 11:05:28;;;;;;;0.85;0.50;;;;;;;36.85;13.04;97144.97;5054413;28;20029;-86
2021/04/29 11:07:55;;;;;;;0.38;0.38;;;;;;;37.02;13.26;97133.25;5052261;28;20107;-86
2021/04/29 11:10:25;;;;;;;0.90;0.50;;;;;;;36.15;14.17;97145.44;5035338;28;20038;-86
2021/04/29 11:12:58;;;;;;;0.60;0.57;;;;;;;36.39;13.75;97143.28;5038957;28;20064;-87
2021/04/29 11:15:31;;;;;;;2.25;0.70;;;;;;;36.33;13.58;97142.59;5035458;28;20029;-86
2021/04/29 11:18:04;;;;;;;1.67;0.68;;;;;;;35.67;13.72;97146.22;5037401;28;20037;-86
2021/04/29 11:20:48;;;;;;;1.05;0.60;;;;;;;35.84;13.76;97144.75;5035179;28;20109;-85
2021/04/29 11:23:19;;;;;;;0.88;0.70;;;;;;;35.91;14.03;97149.84;5045608;28;20125;-86
2021/04/29 11:25:49;;;;;;;0.60;0.60;;;;;;;35.42;14.22;97140.50;5034999;28;20529;-86
2021/04/29 11:28:15;;;;;;;1.85;0.70;;;;;;;34.35;14.84;97146.75;5035108;28;20040;-86
2021/04/29 11:30:42;;;;;;;0.85;0.60;;;;;;;35.24;14.67;97151.84;5039090;28;20025;-86
2021/04/29 11:33:12;;;;;;;0.50;0.50;;;;;;;35.03;14.26;97145.03;5035968;28;20029;-86
2021/04/29 11:35:40;;;;;;;;;;;;;;;35.19;14.46;97150.59;5036593;28;20033;-86
2021/04/29 11:38:09;;;;;;;1.00;0.50;;;;;;;35.59;14.08;97148.94;5040466;28;19925;-86